Arnold, Kansas
Current Conditions -  °F | °C
As of 10:15 PM on Wednesday 22 Oct 2014 (Local Time) from KHYS Reporting Station
Few Clouds Few Clouds  
Wind Chill: 61°   Ceiling: Unl
Heat Index: 61°   Visibility: 10mi
Dew Point: 54°   Wind: 14mph
Humidity: 77%   Direction: 190°S
Pressure: 30.05"   Gusts: NA
Location:  38.64°N, 100.05°W
Report Text: KHYS 230315Z AUTO 19012KT 10SM FEW050 16/12 A3005 RMK AO1
Loading
Personal Weather Stations






























Interactive Weather Map New forecast layout! Learn more

10-Day Weather Forecast

Advertisements
Track Severe Weather on mobile